Time;durP1;ratioP1;P1;durP2;ratioP2;P2;SDS_P1;SDS_P2;PMS_P1;PMS_P2;Temp;Humidity;BMP_temperature;BMP_pressure;BME280_temperature;BME280_humidity;BME280_pressure;Samples;Min_cycle;Max_cycle;Signal;HPM_P1;HPM_P2
2021/11/11 00:04:56;;;;;;;;;93.00;76.67;;;;;7.68;62.21;102167.84;6250428;22;46767;-87
2021/11/11 00:18:43;;;;;;;;;;;;;;;;;;;;;
2021/11/11 00:21:49;;;;;;;;;92.00;78.00;;;;;7.51;62.29;102154.22;6155706;23;72887;-87
2021/11/11 00:24:56;;;;;;;;;;;;;;;;;;;;;
2021/11/11 00:27:51;;;;;;;;;94.67;81.67;;;;;7.41;61.95;102132.09;6161599;22;73498;-88
2021/11/11 07:17:02;;;;;;;;;70.00;55.00;;;;;5.29;68.77;102275.00;6344037;22;45448;-92
2021/11/11 07:19:34;;;;;;;;;69.50;56.00;;;;;5.41;68.99;102299.03;6317303;22;45741;-93
2021/11/11 07:22:14;;;;;;;;;;;;;;;;;;;;;
2021/11/11 07:25:23;;;;;;;;;71.25;55.50;;;;;5.50;68.85;102303.75;6346391;22;71811;-91
2021/11/11 07:27:49;;;;;;;;;71.00;57.25;;;;;5.63;68.63;102315.63;6336828;22;46963;-94
2021/11/11 07:30:18;;;;;;;;;68.75;53.50;;;;;5.57;68.47;102290.13;6317231;22;45464;-94
2021/11/11 07:32:47;;;;;;;;;81.25;61.50;;;;;5.46;68.17;102271.41;6317490;22;45241;-93
2021/11/11 07:35:33;;;;;;;;;76.25;59.25;;;;;5.46;68.54;102273.13;6317321;22;45444;-92
2021/11/11 07:38:00;;;;;;;;;75.00;57.75;;;;;5.59;68.77;102293.69;6318254;22;47385;-92
2021/11/11 07:40:33;;;;;;;;;79.00;63.25;;;;;5.55;68.50;102283.94;6318068;22;45366;-93
2021/11/11 07:43:06;;;;;;;;;82.50;62.00;;;;;5.62;68.67;102285.09;6317671;22;45208;-93
2021/11/11 07:45:32;;;;;;;;;77.75;60.75;;;;;5.64;68.60;102278.19;6318014;22;45187;-94
2021/11/11 07:48:01;;;;;;;;;84.75;65.50;;;;;5.75;68.58;102295.22;6317777;22;46753;-93
2021/11/11 07:50:59;;;;;;;;;;;;;;;;;;;;;
2021/11/11 07:53:43;;;;;;;;;80.50;64.75;;;;;5.90;68.23;102310.63;6339611;22;45270;-93
2021/11/11 07:56:17;;;;;;;;;79.25;63.25;;;;;5.96;68.42;102316.13;6319351;22;45393;-92
2021/11/11 07:58:45;;;;;;;;;84.75;66.25;;;;;6.01;68.64;102304.13;6323532;22;46728;-93
2021/11/11 08:59:04;;;;;;;;;;;;;;;;;;;;;
2021/11/11 18:40:00;;;;;;;;;75.00;59.00;;;;;10.82;55.59;102053.63;5963925;23;45872;-90
2021/11/11 21:51:34;;;;;;;;;;;;;;;;;;;;;
2021/11/11 21:54:06;;;;;;;;;70.25;54.75;;;;;9.25;59.70;101950.69;6201132;22;68399;-86
2021/11/11 22:34:15;;;;;;;;;;;;;;;;;;;;;
2021/11/11 22:36:50;;;;;;;;;88.50;65.25;;;;;9.10;60.79;101937.22;6401495;22;73334;-85
2021/11/11 22:39:31;;;;;;;;;;;;;;;;;;;;;
2021/11/11 22:42:00;;;;;;;;;83.75;64.25;;;;;9.08;61.00;101933.66;6403659;22;72120;-85
2021/11/11 22:44:26;;;;;;;;;83.50;66.25;;;;;9.01;60.83;101913.38;6376756;22;47215;-86
2021/11/11 22:46:53;;;;;;;;;90.00;70.75;;;;;9.01;61.09;101901.13;6375567;22;45774;-85
2021/11/11 22:49:21;;;;;;;;;90.67;76.67;;;;;8.98;60.78;101905.41;6375404;22;45740;-86
2021/11/11 22:51:52;;;;;;;;;90.75;75.25;;;;;9.02;61.45;101915.16;6375180;22;45324;-86
2021/11/11 22:54:22;;;;;;;;;93.00;79.50;;;;;8.87;61.09;101889.44;6374117;22;47731;-86
2021/11/11 22:59:36;;;;;;;;;84.50;68.00;;;;;8.98;61.43;101914.22;6404703;22;45700;-86
2021/11/11 23:02:15;;;;;;;;;82.50;66.25;;;;;8.98;61.25;101910.66;6373808;22;45769;-85
2021/11/11 23:04:55;;;;;;;;;84.75;65.75;;;;;8.81;61.55;101878.81;6403528;22;46184;-86
2021/11/11 23:13:23;;;;;;;;;79.50;63.50;;;;;8.74;61.51;101897.88;6331884;22;45427;-86
2021/11/11 23:21:28;;;;;;;;;83.25;66.75;;;;;8.63;61.57;101871.41;6402050;22;45345;-87
2021/11/11 23:26:48;;;;;;;;;79.75;63.00;;;;;8.74;61.84;101905.75;6403191;22;46418;-88
2021/11/11 23:32:19;;;;;;;;;84.50;65.75;;;;;8.59;61.85;101888.81;6366370;22;45607;-89
2021/11/11 23:34:45;;;;;;;;;81.75;67.75;;;;;8.70;61.49;101910.06;6374589;22;45423;-87
2021/11/11 23:37:12;;;;;;;;;87.00;67.75;;;;;8.48;61.73;101869.31;6373865;22;47038;-88
2021/11/11 23:39:38;;;;;;;;;84.00;64.25;;;;;8.58;61.86;101892.31;6404363;22;45336;-90
2021/11/11 23:42:05;;;;;;;;;84.50;71.25;;;;;8.56;62.04;101888.75;6376954;22;45721;-91
2021/11/11 23:44:33;;;;;;;;;77.25;60.75;;;;;8.62;62.31;101898.50;6375924;22;45429;-88
2021/11/11 23:47:01;;;;;;;;;78.00;61.00;;;;;8.55;62.08;101884.38;6374826;22;48473;-90
2021/11/11 23:49:40;;;;;;;;;89.75;74.00;;;;;8.53;62.32;101886.06;6372683;22;45378;-86
